sensor_id;sensor_type;location;lat;lon;timestamp;pressure;altitude;pressure_sealevel;temperature;humidity
11038;BME280;5572;49.540;11.932;2022-12-08T02:39:49;96454.22;;;2.30;100.00
11038;BME280;5572;49.540;11.932;2022-12-08T02:42:24;96459.09;;;2.33;100.00
11038;BME280;5572;49.540;11.932;2022-12-08T02:44:56;96448.91;;;2.30;100.00
11038;BME280;5572;49.540;11.932;2022-12-08T02:47:30;96437.09;;;2.26;100.00
11038;BME280;5572;49.540;11.932;2022-12-08T02:49:58;96433.63;;;2.25;100.00
11038;BME280;5572;49.540;11.932;2022-12-08T02:52:39;96431.44;;;2.22;100.00
11038;BME280;5572;49.540;11.932;2022-12-08T02:55:40;96413.38;;;2.24;100.00
11038;BME280;5572;49.540;11.932;2022-12-08T02:58:37;96405.00;;;2.21;100.00
11038;BME280;5572;49.540;11.932;2022-12-08T03:01:19;96409.88;;;2.24;100.00
11038;BME280;5572;49.540;11.932;2022-12-08T03:03:58;96398.16;;;2.25;100.00
11038;BME280;5572;49.540;11.932;2022-12-08T03:06:31;96397.84;;;2.21;100.00
11038;BME280;5572;49.540;11.932;2022-12-08T03:09:03;96387.97;;;2.22;100.00
11038;BME280;5572;49.540;11.932;2022-12-08T03:11:43;96382.91;;;2.20;100.00
11038;BME280;5572;49.540;11.932;2022-12-08T03:14:15;96369.81;;;2.19;100.00
11038;BME280;5572;49.540;11.932;2022-12-08T03:16:45;96360.19;;;2.18;100.00
11038;BME280;5572;49.540;11.932;2022-12-08T03:19:17;96363.09;;;2.16;100.00
11038;BME280;5572;49.540;11.932;2022-12-08T03:21:47;96345.25;;;2.17;100.00
11038;BME280;5572;49.540;11.932;2022-12-08T03:24:16;96345.00;;;2.18;100.00
11038;BME280;5572;49.540;11.932;2022-12-08T03:26:50;96337.47;;;2.15;100.00
11038;BME280;5572;49.540;11.932;2022-12-08T03:29:21;96319.31;;;2.12;100.00
11038;BME280;5572;49.540;11.932;2022-12-08T03:31:51;96305.44;;;2.10;100.00
11038;BME280;5572;49.540;11.932;2022-12-08T03:34:21;96299.63;;;2.13;100.00
11038;BME280;5572;49.540;11.932;2022-12-08T03:36:52;96282.44;;;2.04;100.00
11038;BME280;5572;49.540;11.932;2022-12-08T03:39:29;96254.69;;;2.05;100.00
11038;BME280;5572;49.540;11.932;2022-12-08T03:41:57;96253.66;;;2.06;100.00
11038;BME280;5572;49.540;11.932;2022-12-08T03:44:23;96245.91;;;2.05;100.00
11038;BME280;5572;49.540;11.932;2022-12-08T03:46:50;96230.47;;;2.07;100.00
11038;BME280;5572;49.540;11.932;2022-12-08T03:49:16;96217.94;;;2.07;100.00
11038;BME280;5572;49.540;11.932;2022-12-08T03:51:43;96209.38;;;2.05;100.00
11038;BME280;5572;49.540;11.932;2022-12-08T03:54:10;96195.53;;;2.03;100.00
11038;BME280;5572;49.540;11.932;2022-12-08T03:56:38;96198.50;;;2.07;100.00
11038;BME280;5572;49.540;11.932;2022-12-08T03:59:15;96180.31;;;2.04;100.00
11038;BME280;5572;49.540;11.932;2022-12-08T04:01:44;96168.63;;;2.05;100.00
11038;BME280;5572;49.540;11.932;2022-12-08T04:04:11;96164.34;;;2.04;100.00
11038;BME280;5572;49.540;11.932;2022-12-08T04:06:38;96149.34;;;1.98;100.00
11038;BME280;5572;49.540;11.932;2022-12-08T04:09:05;96140.34;;;2.04;100.00
11038;BME280;5572;49.540;11.932;2022-12-08T04:11:31;96119.78;;;1.99;100.00
11038;BME280;5572;49.540;11.932;2022-12-08T04:13:58;96111.00;;;1.99;100.00
11038;BME280;5572;49.540;11.932;2022-12-08T04:16:27;96101.91;;;2.00;100.00
11038;BME280;5572;49.540;11.932;2022-12-08T04:18:55;96092.06;;;2.00;100.00
11038;BME280;5572;49.540;11.932;2022-12-08T04:21:21;96068.59;;;1.97;100.00
11038;BME280;5572;49.540;11.932;2022-12-08T04:23:48;96050.19;;;1.96;100.00
11038;BME280;5572;49.540;11.932;2022-12-08T04:26:15;96044.28;;;1.94;100.00
11038;BME280;5572;49.540;11.932;2022-12-08T04:28:42;96023.81;;;1.94;100.00
11038;BME280;5572;49.540;11.932;2022-12-08T04:31:09;95993.06;;;1.87;100.00
11038;BME280;5572;49.540;11.932;2022-12-08T04:33:38;96004.31;;;1.94;100.00
11038;BME280;5572;49.540;11.932;2022-12-08T04:36:06;96011.47;;;1.88;100.00
11038;BME280;5572;49.540;11.932;2022-12-08T04:38:36;95997.53;;;1.81;100.00
11038;BME280;5572;49.540;11.932;2022-12-08T04:41:03;95976.66;;;1.73;100.00
11038;BME280;5572;49.540;11.932;2022-12-08T04:43:30;95959.75;;;1.63;100.00
11038;BME280;5572;49.540;11.932;2022-12-08T04:45:56;95950.84;;;1.53;100.00
11038;BME280;5572;49.540;11.932;2022-12-08T04:48:23;95946.56;;;1.52;100.00
11038;BME280;5572;49.540;11.932;2022-12-08T04:50:51;95940.69;;;1.50;100.00
11038;BME280;5572;49.540;11.932;2022-12-08T04:53:21;95934.22;;;1.46;100.00
11038;BME280;5572;49.540;11.932;2022-12-08T04:55:48;95914.97;;;1.39;100.00
11038;BME280;5572;49.540;11.932;2022-12-08T04:58:16;95902.41;;;1.34;100.00
11038;BME280;5572;49.540;11.932;2022-12-08T05:00:44;95893.56;;;1.29;100.00
11038;BME280;5572;49.540;11.932;2022-12-08T05:03:12;95883.34;;;1.21;100.00
11038;BME280;5572;49.540;11.932;2022-12-08T05:05:38;95877.72;;;1.17;100.00
11038;BME280;5572;49.540;11.932;2022-12-08T05:08:08;95901.28;;;1.30;100.00
11038;BME280;5572;49.540;11.932;2022-12-08T05:10:34;95881.38;;;1.11;100.00
11038;BME280;5572;49.540;11.932;2022-12-08T05:13:01;95890.47;;;1.15;100.00
11038;BME280;5572;49.540;11.932;2022-12-08T05:15:28;95884.75;;;1.07;100.00
11038;BME280;5572;49.540;11.932;2022-12-08T05:17:55;95884.72;;;1.02;100.00
11038;BME280;5572;49.540;11.932;2022-12-08T05:20:21;95901.13;;;1.15;100.00
11038;BME280;5572;49.540;11.932;2022-12-08T05:22:48;95902.41;;;1.13;100.00
11038;BME280;5572;49.540;11.932;2022-12-08T05:25:16;95905.69;;;1.20;100.00
11038;BME280;5572;49.540;11.932;2022-12-08T05:27:43;95909.66;;;1.17;100.00
11038;BME280;5572;49.540;11.932;2022-12-08T05:30:10;95908.91;;;1.22;100.00
11038;BME280;5572;49.540;11.932;2022-12-08T05:32:36;95907.34;;;1.26;100.00
11038;BME280;5572;49.540;11.932;2022-12-08T05:35:04;95913.00;;;1.29;100.00
11038;BME280;5572;49.540;11.932;2022-12-08T05:37:31;95908.19;;;1.26;100.00
11038;BME280;5572;49.540;11.932;2022-12-08T05:39:57;95911.22;;;1.35;100.00
11038;BME280;5572;49.540;11.932;2022-12-08T05:42:26;95900.00;;;1.33;100.00
11038;BME280;5572;49.540;11.932;2022-12-08T05:44:53;95899.25;;;1.37;100.00
11038;BME280;5572;49.540;11.932;2022-12-08T05:47:19;95892.81;;;1.33;100.00
11038;BME280;5572;49.540;11.932;2022-12-08T05:49:48;95875.75;;;1.29;100.00
11038;BME280;5572;49.540;11.932;2022-12-08T05:52:18;95868.31;;;1.31;100.00
11038;BME280;5572;49.540;11.932;2022-12-08T05:54:45;95857.44;;;1.33;100.00
11038;BME280;5572;49.540;11.932;2022-12-08T05:57:11;95849.63;;;1.26;100.00
11038;BME280;5572;49.540;11.932;2022-12-08T05:59:39;95852.50;;;1.25;100.00
11038;BME280;5572;49.540;11.932;2022-12-08T06:02:07;95847.53;;;1.28;100.00
11038;BME280;5572;49.540;11.932;2022-12-08T06:04:34;95829.84;;;1.17;100.00
11038;BME280;5572;49.540;11.932;2022-12-08T06:07:01;95843.13;;;1.17;100.00
11038;BME280;5572;49.540;11.932;2022-12-08T06:09:28;95835.94;;;1.18;100.00
11038;BME280;5572;49.540;11.932;2022-12-08T06:11:55;95835.16;;;1.17;100.00
11038;BME280;5572;49.540;11.932;2022-12-08T06:14:22;95842.44;;;1.27;100.00
11038;BME280;5572;49.540;11.932;2022-12-08T06:16:50;95853.38;;;1.30;100.00
11038;BME280;5572;49.540;11.932;2022-12-08T06:19:16;95855.31;;;1.35;100.00
11038;BME280;5572;49.540;11.932;2022-12-08T06:21:43;95844.13;;;1.33;100.00
11038;BME280;5572;49.540;11.932;2022-12-08T06:24:10;95839.69;;;1.43;100.00
11038;BME280;5572;49.540;11.932;2022-12-08T06:26:37;95835.19;;;1.44;100.00
11038;BME280;5572;49.540;11.932;2022-12-08T06:29:05;95810.59;;;1.37;100.00
11038;BME280;5572;49.540;11.932;2022-12-08T06:31:32;95804.28;;;1.43;100.00
11038;BME280;5572;49.540;11.932;2022-12-08T06:34:00;95801.63;;;1.43;100.00
11038;BME280;5572;49.540;11.932;2022-12-08T06:36:27;95788.81;;;1.40;100.00
11038;BME280;5572;49.540;11.932;2022-12-08T06:38:53;95781.63;;;1.40;100.00
11038;BME280;5572;49.540;11.932;2022-12-08T06:41:21;95772.59;;;1.41;100.00
11038;BME280;5572;49.540;11.932;2022-12-08T06:43:47;95765.91;;;1.39;100.00
11038;BME280;5572;49.540;11.932;2022-12-08T06:46:16;95761.63;;;1.38;100.00
11038;BME280;5572;49.540;11.932;2022-12-08T06:48:44;95751.28;;;1.41;100.00
11038;BME280;5572;49.540;11.932;2022-12-08T06:51:14;95739.25;;;1.34;100.00
11038;BME280;5572;49.540;11.932;2022-12-08T06:53:41;95743.00;;;1.38;100.00
11038;BME280;5572;49.540;11.932;2022-12-08T06:56:09;95731.03;;;1.40;100.00
11038;BME280;5572;49.540;11.932;2022-12-08T06:58:36;95713.44;;;1.34;100.00
11038;BME280;5572;49.540;11.932;2022-12-08T07:01:04;95723.28;;;1.34;100.00
11038;BME280;5572;49.540;11.932;2022-12-08T07:03:31;95710.78;;;1.34;100.00
11038;BME280;5572;49.540;11.932;2022-12-08T07:05:58;95701.72;;;1.35;100.00
11038;BME280;5572;49.540;11.932;2022-12-08T07:08:26;95706.56;;;1.38;100.00
11038;BME280;5572;49.540;11.932;2022-12-08T07:10:53;95700.41;;;1.38;100.00
11038;BME280;5572;49.540;11.932;2022-12-08T07:13:20;95696.41;;;1.35;100.00
11038;BME280;5572;49.540;11.932;2022-12-08T07:15:47;95691.34;;;1.34;100.00
11038;BME280;5572;49.540;11.932;2022-12-08T07:18:14;95699.38;;;1.39;100.00
11038;BME280;5572;49.540;11.932;2022-12-08T07:20:40;95693.25;;;1.38;100.00
11038;BME280;5572;49.540;11.932;2022-12-08T07:23:07;95691.44;;;1.44;100.00
11038;BME280;5572;49.540;11.932;2022-12-08T07:25:36;95688.81;;;1.49;100.00
11038;BME280;5572;49.540;11.932;2022-12-08T07:28:09;95675.19;;;1.45;100.00
11038;BME280;5572;49.540;11.932;2022-12-08T07:30:36;95677.38;;;1.48;100.00
11038;BME280;5572;49.540;11.932;2022-12-08T07:33:03;95670.22;;;1.54;100.00
11038;BME280;5572;49.540;11.932;2022-12-08T07:35:30;95656.66;;;1.55;100.00
11038;BME280;5572;49.540;11.932;2022-12-08T07:37:57;95671.91;;;1.65;100.00
11038;BME280;5572;49.540;11.932;2022-12-08T07:40:24;95654.81;;;1.61;100.00
11038;BME280;5572;49.540;11.932;2022-12-08T07:42:52;95652.09;;;1.56;100.00
11038;BME280;5572;49.540;11.932;2022-12-08T07:45:19;95653.78;;;1.67;100.00
11038;BME280;5572;49.540;11.932;2022-12-08T07:47:49;95631.63;;;1.56;100.00
11038;BME280;5572;49.540;11.932;2022-12-08T07:50:15;95622.88;;;1.61;100.00
11038;BME280;5572;49.540;11.932;2022-12-08T07:52:42;95616.72;;;1.55;100.00
11038;BME280;5572;49.540;11.932;2022-12-08T07:55:09;95619.38;;;1.60;100.00
11038;BME280;5572;49.540;11.932;2022-12-08T07:57:36;95602.81;;;1.48;100.00
11038;BME280;5572;49.540;11.932;2022-12-08T08:00:05;95614.06;;;1.60;100.00
11038;BME280;5572;49.540;11.932;2022-12-08T08:02:32;95615.72;;;1.66;100.00
11038;BME280;5572;49.540;11.932;2022-12-08T08:04:58;95604.50;;;1.64;100.00
11038;BME280;5572;49.540;11.932;2022-12-08T08:07:25;95598.13;;;1.65;100.00
11038;BME280;5572;49.540;11.932;2022-12-08T08:09:53;95601.06;;;1.68;100.00
11038;BME280;5572;49.540;11.932;2022-12-08T08:12:19;95595.53;;;1.75;100.00
11038;BME280;5572;49.540;11.932;2022-12-08T08:14:46;95582.72;;;1.72;100.00
11038;BME280;5572;49.540;11.932;2022-12-08T08:17:14;95567.56;;;1.77;100.00
11038;BME280;5572;49.540;11.932;2022-12-08T08:19:40;95546.78;;;1.74;100.00
11038;BME280;5572;49.540;11.932;2022-12-08T08:22:07;95531.81;;;1.64;100.00
11038;BME280;5572;49.540;11.932;2022-12-08T08:24:34;95543.63;;;1.82;100.00
11038;BME280;5572;49.540;11.932;2022-12-08T08:27:00;95531.09;;;1.78;100.00
11038;BME280;5572;49.540;11.932;2022-12-08T08:29:27;95534.03;;;1.86;100.00
11038;BME280;5572;49.540;11.932;2022-12-08T08:31:53;95533.81;;;1.88;100.00
11038;BME280;5572;49.540;11.932;2022-12-08T08:34:21;95526.09;;;1.91;100.00
11038;BME280;5572;49.540;11.932;2022-12-08T08:36:48;95506.34;;;1.87;100.00
11038;BME280;5572;49.540;11.932;2022-12-08T08:39:15;95522.38;;;1.97;100.00
11038;BME280;5572;49.540;11.932;2022-12-08T08:41:41;95506.66;;;2.01;100.00
11038;BME280;5572;49.540;11.932;2022-12-08T08:44:08;95502.94;;;2.02;100.00
11038;BME280;5572;49.540;11.932;2022-12-08T08:46:34;95469.88;;;1.88;100.00
11038;BME280;5572;49.540;11.932;2022-12-08T08:49:01;95474.69;;;2.01;100.00
11038;BME280;5572;49.540;11.932;2022-12-08T08:51:29;95468.06;;;2.13;100.00
11038;BME280;5572;49.540;11.932;2022-12-08T08:53:56;95461.41;;;2.21;100.00
11038;BME280;5572;49.540;11.932;2022-12-08T08:56:22;95445.69;;;2.29;100.00
11038;BME280;5572;49.540;11.932;2022-12-08T08:58:50;95442.78;;;2.36;100.00
11038;BME280;5572;49.540;11.932;2022-12-08T09:01:19;95434.25;;;2.49;100.00
11038;BME280;5572;49.540;11.932;2022-12-08T09:03:46;95404.38;;;2.42;100.00
11038;BME280;5572;49.540;11.932;2022-12-08T09:06:13;95389.72;;;2.29;100.00
11038;BME280;5572;49.540;11.932;2022-12-08T09:08:42;95361.19;;;2.35;100.00
11038;BME280;5572;49.540;11.932;2022-12-08T09:11:09;95345.19;;;2.40;100.00
11038;BME280;5572;49.540;11.932;2022-12-08T09:13:36;95329.47;;;2.53;100.00
11038;BME280;5572;49.540;11.932;2022-12-08T09:16:05;95327.31;;;2.60;100.00
11038;BME280;5572;49.540;11.932;2022-12-08T09:18:33;95303.56;;;2.63;100.00
11038;BME280;5572;49.540;11.932;2022-12-08T09:21:03;95290.50;;;2.62;100.00
11038;BME280;5572;49.540;11.932;2022-12-08T09:23:30;95256.63;;;2.62;100.00
11038;BME280;5572;49.540;11.932;2022-12-08T09:25:58;95242.44;;;2.77;100.00
11038;BME280;5572;49.540;11.932;2022-12-08T09:28:25;95208.31;;;2.74;100.00
11038;BME280;5572;49.540;11.932;2022-12-08T09:30:51;95205.59;;;2.84;100.00
11038;BME280;5572;49.540;11.932;2022-12-08T09:33:18;95178.75;;;2.65;100.00
11038;BME280;5572;49.540;11.932;2022-12-08T09:35:45;95164.28;;;2.76;100.00
11038;BME280;5572;49.540;11.932;2022-12-08T09:38:11;95130.69;;;2.75;100.00
11038;BME280;5572;49.540;11.932;2022-12-08T09:40:41;95133.59;;;2.79;100.00
11038;BME280;5572;49.540;11.932;2022-12-08T09:43:23;95115.63;;;2.94;100.00
11038;BME280;5572;49.540;11.932;2022-12-08T09:45:56;95076.34;;;3.00;100.00
11038;BME280;5572;49.540;11.932;2022-12-08T09:48:28;95028.31;;;3.00;100.00
11038;BME280;5572;49.540;11.932;2022-12-08T09:50:57;94986.41;;;3.00;100.00
11038;BME280;5572;49.540;11.932;2022-12-08T09:53:26;94978.81;;;3.17;100.00
11038;BME280;5572;49.540;11.932;2022-12-08T09:55:55;94939.44;;;3.28;100.00
11038;BME280;5572;49.540;11.932;2022-12-08T09:58:30;94902.25;;;3.13;100.00
11038;BME280;5572;49.540;11.932;2022-12-08T10:00:57;94910.06;;;3.28;100.00
11038;BME280;5572;49.540;11.932;2022-12-08T10:03:28;94885.81;;;3.24;100.00
11038;BME280;5572;49.540;11.932;2022-12-08T10:06:00;94893.72;;;3.34;100.00
11038;BME280;5572;49.540;11.932;2022-12-08T10:08:40;94824.03;;;2.89;100.00
11038;BME280;5572;49.540;11.932;2022-12-08T10:11:11;94838.97;;;2.90;100.00
11038;BME280;5572;49.540;11.932;2022-12-08T10:13:45;94788.19;;;2.76;100.00
11038;BME280;5572;49.540;11.932;2022-12-08T10:16:22;94804.75;;;2.97;100.00
11038;BME280;5572;49.540;11.932;2022-12-08T10:18:56;94811.53;;;3.31;100.00
11038;BME280;5572;49.540;11.932;2022-12-08T10:21:27;94775.13;;;3.17;100.00
11038;BME280;5572;49.540;11.932;2022-12-08T10:23:59;94756.31;;;3.08;100.00
11038;BME280;5572;49.540;11.932;2022-12-08T10:26:27;94746.16;;;3.29;100.00
11038;BME280;5572;49.540;11.932;2022-12-08T10:29:00;94722.44;;;3.27;100.00
11038;BME280;5572;49.540;11.932;2022-12-08T10:31:29;94709.50;;;3.16;100.00
11038;BME280;5572;49.540;11.932;2022-12-08T10:33:57;94688.84;;;3.21;100.00
11038;BME280;5572;49.540;11.932;2022-12-08T10:36:43;94672.28;;;3.42;100.00
11038;BME280;5572;49.540;11.932;2022-12-08T10:39:29;94662.91;;;3.58;100.00
11038;BME280;5572;49.540;11.932;2022-12-08T10:42:00;94649.50;;;3.63;100.00
11038;BME280;5572;49.540;11.932;2022-12-08T10:44:29;94628.78;;;3.55;100.00
11038;BME280;5572;49.540;11.932;2022-12-08T10:46:56;94601.88;;;3.52;100.00
11038;BME280;5572;49.540;11.932;2022-12-08T10:49:26;94570.53;;;3.26;100.00
11038;BME280;5572;49.540;11.932;2022-12-08T10:51:56;94564.84;;;3.32;100.00
11038;BME280;5572;49.540;11.932;2022-12-08T10:54:27;94541.00;;;3.36;100.00
11038;BME280;5572;49.540;11.932;2022-12-08T10:56:56;94532.81;;;3.45;100.00
11038;BME280;5572;49.540;11.932;2022-12-08T10:59:22;94467.25;;;3.13;100.00
11038;BME280;5572;49.540;11.932;2022-12-08T11:01:52;94470.00;;;3.35;100.00
11038;BME280;5572;49.540;11.932;2022-12-08T11:04:20;94429.56;;;3.14;100.00
11038;BME280;5572;49.540;11.932;2022-12-08T11:06:48;94393.97;;;3.05;100.00
11038;BME280;5572;49.540;11.932;2022-12-08T11:09:35;94426.69;;;3.11;100.00
11038;BME280;5572;49.540;11.932;2022-12-08T11:12:06;94394.88;;;3.28;100.00
11038;BME280;5572;49.540;11.932;2022-12-08T11:14:44;94372.53;;;3.50;100.00
11038;BME280;5572;49.540;11.932;2022-12-08T11:17:15;94356.28;;;3.60;100.00
11038;BME280;5572;49.540;11.932;2022-12-08T11:19:43;94307.94;;;3.48;100.00
11038;BME280;5572;49.540;11.932;2022-12-08T11:22:21;94271.13;;;3.24;100.00
11038;BME280;5572;49.540;11.932;2022-12-08T11:24:57;94295.91;;;3.38;100.00
11038;BME280;5572;49.540;11.932;2022-12-08T11:27:24;94199.78;;;3.02;100.00
11038;BME280;5572;49.540;11.932;2022-12-08T11:29:51;94216.06;;;3.49;100.00
11038;BME280;5572;49.540;11.932;2022-12-08T11:32:19;94198.31;;;3.67;100.00
11038;BME280;5572;49.540;11.932;2022-12-08T11:34:49;94146.47;;;3.46;100.00
11038;BME280;5572;49.540;11.932;2022-12-08T11:37:20;94144.22;;;3.61;100.00
11038;BME280;5572;49.540;11.932;2022-12-08T11:39:51;94094.34;;;3.48;100.00
11038;BME280;5572;49.540;11.932;2022-12-08T11:42:23;94237.75;;;3.35;100.00
11038;BME280;5572;49.540;11.932;2022-12-08T11:44:56;94252.84;;;3.74;100.00
11038;BME280;5572;49.540;11.932;2022-12-08T11:47:27;94245.06;;;3.78;100.00
11038;BME280;5572;49.540;11.932;2022-12-08T11:50:01;94226.09;;;3.66;100.00
11038;BME280;5572;49.540;11.932;2022-12-08T11:52:32;94199.69;;;3.86;100.00
11038;BME280;5572;49.540;11.932;2022-12-08T11:55:04;94182.78;;;4.29;100.00
11038;BME280;5572;49.540;11.932;2022-12-08T11:57:39;94124.75;;;4.30;100.00
11038;BME280;5572;49.540;11.932;2022-12-08T12:00:16;94090.97;;;4.34;100.00
11038;BME280;5572;49.540;11.932;2022-12-08T12:02:53;94096.22;;;4.81;100.00
11038;BME280;5572;49.540;11.932;2022-12-08T12:05:32;94014.53;;;4.50;100.00
11038;BME280;5572;49.540;11.932;2022-12-08T12:08:08;93933.22;;;4.51;100.00
11038;BME280;5572;49.540;11.932;2022-12-08T12:10:53;93855.31;;;4.61;100.00
11038;BME280;5572;49.540;11.932;2022-12-08T12:13:44;93772.72;;;4.59;100.00
11038;BME280;5572;49.540;11.932;2022-12-08T12:16:48;93744.97;;;4.72;100.00
11038;BME280;5572;49.540;11.932;2022-12-08T12:19:19;93688.91;;;4.47;100.00
11038;BME280;5572;49.540;11.932;2022-12-08T12:21:49;93647.16;;;4.34;100.00
11038;BME280;5572;49.540;11.932;2022-12-08T12:24:19;93633.09;;;4.45;100.00
11038;BME280;5572;49.540;11.932;2022-12-08T12:26:55;93601.63;;;4.51;100.00
11038;BME280;5572;49.540;11.932;2022-12-08T12:29:24;93574.69;;;4.27;100.00
11038;BME280;5572;49.540;11.932;2022-12-08T12:31:54;93552.13;;;4.65;100.00
11038;BME280;5572;49.540;11.932;2022-12-08T12:34:26;93517.81;;;4.67;100.00
11038;BME280;5572;49.540;11.932;2022-12-08T12:36:57;93472.38;;;4.79;100.00
11038;BME280;5572;49.540;11.932;2022-12-08T12:39:31;93460.16;;;4.90;100.00
11038;BME280;5572;49.540;11.932;2022-12-08T12:42:01;93435.09;;;4.62;100.00
11038;BME280;5572;49.540;11.932;2022-12-08T12:44:39;93414.25;;;4.88;100.00
11038;BME280;5572;49.540;11.932;2022-12-08T12:47:13;93402.34;;;4.65;100.00
11038;BME280;5572;49.540;11.932;2022-12-08T12:50:06;93367.09;;;4.63;100.00
11038;BME280;5572;49.540;11.932;2022-12-08T12:52:46;93365.47;;;4.71;100.00
11038;BME280;5572;49.540;11.932;2022-12-08T12:55:28;93344.84;;;4.71;100.00
11038;BME280;5572;49.540;11.932;2022-12-08T12:57:56;93341.28;;;4.67;100.00
11038;BME280;5572;49.540;11.932;2022-12-08T13:00:25;93347.06;;;4.69;100.00
11038;BME280;5572;49.540;11.932;2022-12-08T13:02:53;93314.53;;;4.79;100.00
11038;BME280;5572;49.540;11.932;2022-12-08T13:05:23;93305.41;;;4.68;100.00
11038;BME280;5572;49.540;11.932;2022-12-08T13:07:53;93293.44;;;4.66;100.00
11038;BME280;5572;49.540;11.932;2022-12-08T13:10:24;93280.56;;;4.80;100.00
11038;BME280;5572;49.540;11.932;2022-12-08T13:13:14;93313.50;;;4.60;100.00
11038;BME280;5572;49.540;11.932;2022-12-08T13:15:47;93293.44;;;4.66;100.00
11038;BME280;5572;49.540;11.932;2022-12-08T13:18:18;93281.88;;;4.62;100.00
11038;BME280;5572;49.540;11.932;2022-12-08T13:20:50;93286.41;;;4.61;100.00
11038;BME280;5572;49.540;11.932;2022-12-08T13:23:30;93229.94;;;4.51;100.00
11038;BME280;5572;49.540;11.932;2022-12-08T13:26:14;93222.22;;;4.49;100.00
11038;BME280;5572;49.540;11.932;2022-12-08T13:31:46;93347.47;;;4.27;100.00
11038;BME280;5572;49.540;11.932;2022-12-08T13:34:16;93349.38;;;4.06;100.00
11038;BME280;5572;49.540;11.932;2022-12-08T13:36:51;93336.03;;;4.06;100.00
11038;BME280;5572;49.540;11.932;2022-12-08T13:39:23;93362.47;;;4.20;100.00
11038;BME280;5572;49.540;11.932;2022-12-08T13:42:06;93315.69;;;4.14;100.00
11038;BME280;5572;49.540;11.932;2022-12-08T13:44:42;93325.84;;;4.00;100.00
11038;BME280;5572;49.540;11.932;2022-12-08T13:47:12;93333.16;;;3.91;100.00
11038;BME280;5572;49.540;11.932;2022-12-08T13:49:45;93333.31;;;3.74;100.00
11038;BME280;5572;49.540;11.932;2022-12-08T13:52:30;93352.59;;;3.79;100.00
11038;BME280;5572;49.540;11.932;2022-12-08T13:54:59;93327.84;;;3.70;100.00
11038;BME280;5572;49.540;11.932;2022-12-08T13:57:30;93337.47;;;3.63;100.00
11038;BME280;5572;49.540;11.932;2022-12-08T14:00:00;93319.38;;;3.68;100.00
11038;BME280;5572;49.540;11.932;2022-12-08T14:02:31;93309.31;;;3.65;100.00
11038;BME280;5572;49.540;11.932;2022-12-08T14:04:59;93318.97;;;3.58;100.00
11038;BME280;5572;49.540;11.932;2022-12-08T14:07:27;93321.78;;;3.61;100.00
11038;BME280;5572;49.540;11.932;2022-12-08T14:09:54;93323.34;;;3.62;100.00
11038;BME280;5572;49.540;11.932;2022-12-08T14:12:25;93331.75;;;3.73;100.00
11038;BME280;5572;49.540;11.932;2022-12-08T14:14:57;93321.91;;;3.65;100.00
11038;BME280;5572;49.540;11.932;2022-12-08T14:17:24;93302.16;;;3.57;100.00
11038;BME280;5572;49.540;11.932;2022-12-08T14:19:54;93298.25;;;3.55;100.00
11038;BME280;5572;49.540;11.932;2022-12-08T14:22:21;93298.38;;;3.58;100.00
11038;BME280;5572;49.540;11.932;2022-12-08T14:24:51;93288.41;;;3.67;100.00
11038;BME280;5572;49.540;11.932;2022-12-08T14:27:19;93304.97;;;3.61;100.00
11038;BME280;5572;49.540;11.932;2022-12-08T14:29:49;93290.25;;;3.55;100.00
11038;BME280;5572;49.540;11.932;2022-12-08T14:32:23;93287.00;;;3.49;100.00
11038;BME280;5572;49.540;11.932;2022-12-08T14:34:52;93283.59;;;3.40;100.00
11038;BME280;5572;49.540;11.932;2022-12-08T14:37:19;93288.31;;;3.43;100.00
11038;BME280;5572;49.540;11.932;2022-12-08T14:39:46;93265.56;;;3.38;100.00
11038;BME280;5572;49.540;11.932;2022-12-08T14:42:20;93270.50;;;3.27;100.00
11038;BME280;5572;49.540;11.932;2022-12-08T14:44:47;93250.13;;;3.23;100.00
11038;BME280;5572;49.540;11.932;2022-12-08T14:47:18;93268.03;;;3.22;100.00
11038;BME280;5572;49.540;11.932;2022-12-08T14:49:45;93257.41;;;3.14;100.00
11038;BME280;5572;49.540;11.932;2022-12-08T14:52:13;93256.97;;;3.12;100.00
11038;BME280;5572;49.540;11.932;2022-12-08T14:54:41;93251.19;;;3.01;100.00
11038;BME280;5572;49.540;11.932;2022-12-08T14:57:10;93238.84;;;2.97;100.00
11038;BME280;5572;49.540;11.932;2022-12-08T14:59:41;93219.25;;;2.93;100.00
11038;BME280;5572;49.540;11.932;2022-12-08T15:02:12;93233.94;;;2.78;100.00
11038;BME280;5572;49.540;11.932;2022-12-08T15:04:48;93635.94;;;2.73;100.00
11038;BME280;5572;49.540;11.932;2022-12-08T15:07:16;93607.34;;;2.65;100.00
11038;BME280;5572;49.540;11.932;2022-12-08T15:09:45;93590.13;;;2.54;100.00
11038;BME280;5572;49.540;11.932;2022-12-08T15:12:20;93577.72;;;2.58;100.00
11038;BME280;5572;49.540;11.932;2022-12-08T15:14:56;93722.75;;;2.49;100.00
11038;BME280;5572;49.540;11.932;2022-12-08T15:17:30;93672.56;;;2.42;100.00
11038;BME280;5572;49.540;11.932;2022-12-08T15:19:59;93650.13;;;2.35;100.00
11038;BME280;5572;49.540;11.932;2022-12-08T15:22:28;93653.25;;;2.45;100.00
11038;BME280;5572;49.540;11.932;2022-12-08T15:24:56;93638.19;;;2.41;100.00
11038;BME280;5572;49.540;11.932;2022-12-08T15:27:23;93618.75;;;2.32;100.00
11038;BME280;5572;49.540;11.932;2022-12-08T15:29:51;93612.44;;;2.19;100.00
11038;BME280;5572;49.540;11.932;2022-12-08T15:32:20;93602.25;;;2.13;100.00
11038;BME280;5572;49.540;11.932;2022-12-08T15:34:49;93594.25;;;2.04;100.00
11038;BME280;5572;49.540;11.932;2022-12-08T15:37:19;93587.78;;;1.97;100.00
11038;BME280;5572;49.540;11.932;2022-12-08T15:39:47;93568.19;;;1.84;100.00
11038;BME280;5572;49.540;11.932;2022-12-08T15:42:14;93575.25;;;1.89;100.00
11038;BME280;5572;49.540;11.932;2022-12-08T15:44:41;93558.78;;;1.87;100.00
11038;BME280;5572;49.540;11.932;2022-12-08T15:47:14;93555.75;;;1.80;100.00
11038;BME280;5572;49.540;11.932;2022-12-08T15:49:43;93537.72;;;1.68;100.00
11038;BME280;5572;49.540;11.932;2022-12-08T15:52:13;93545.81;;;1.55;100.00
11038;BME280;5572;49.540;11.932;2022-12-08T15:54:40;93541.53;;;1.46;100.00
11038;BME280;5572;49.540;11.932;2022-12-08T15:57:16;93542.72;;;1.31;100.00